sensor_id;sensor_type;location;lat;lon;timestamp;pressure;altitude;pressure_sealevel;temperature;humidity
50550;BME280;36505;52.512;13.460;2023-04-28T00:01:34;101429.28;;;6.06;57.87
50550;BME280;36505;52.512;13.460;2023-04-28T00:04:00;101436.38;;;6.00;57.16
50550;BME280;36505;52.512;13.460;2023-04-28T00:06:26;101430.03;;;5.93;57.85
50550;BME280;36505;52.512;13.460;2023-04-28T00:08:51;101423.09;;;5.90;57.71
50550;BME280;36505;52.512;13.460;2023-04-28T00:11:16;101432.53;;;5.94;57.32
50550;BME280;36505;52.512;13.460;2023-04-28T00:13:42;101406.84;;;5.76;57.46
50550;BME280;36505;52.512;13.460;2023-04-28T00:16:07;101417.53;;;5.77;57.81
50550;BME280;36505;52.512;13.460;2023-04-28T00:18:32;101401.78;;;5.66;58.04
50550;BME280;36505;52.512;13.460;2023-04-28T00:20:58;101436.41;;;5.85;58.36
50550;BME280;36505;52.512;13.460;2023-04-28T00:23:25;101414.75;;;5.71;58.26
50550;BME280;36505;52.512;13.460;2023-04-28T00:25:51;101414.72;;;5.64;58.71
50550;BME280;36505;52.512;13.460;2023-04-28T00:28:17;101422.63;;;5.59;58.63
50550;BME280;36505;52.512;13.460;2023-04-28T00:30:42;101422.00;;;5.64;58.96
50550;BME280;36505;52.512;13.460;2023-04-28T00:33:08;101402.63;;;5.45;59.13
50550;BME280;36505;52.512;13.460;2023-04-28T00:35:33;101419.25;;;5.57;59.16
50550;BME280;36505;52.512;13.460;2023-04-28T00:37:59;101420.03;;;5.51;60.05
50550;BME280;36505;52.512;13.460;2023-04-28T00:40:35;101419.06;;;5.59;60.67
50550;BME280;36505;52.512;13.460;2023-04-28T00:43:01;101388.22;;;5.45;60.25
50550;BME280;36505;52.512;13.460;2023-04-28T00:45:27;101422.22;;;5.62;61.03
50550;BME280;36505;52.512;13.460;2023-04-28T00:47:53;101395.56;;;5.51;60.71
50550;BME280;36505;52.512;13.460;2023-04-28T00:50:19;101402.94;;;5.57;59.85
50550;BME280;36505;52.512;13.460;2023-04-28T00:52:46;101414.66;;;5.57;60.18
50550;BME280;36505;52.512;13.460;2023-04-28T00:55:14;101392.59;;;5.46;60.17
50550;BME280;36505;52.512;13.460;2023-04-28T00:57:40;101405.13;;;5.47;60.68
50550;BME280;36505;52.512;13.460;2023-04-28T01:00:06;101384.78;;;5.36;60.68
50550;BME280;36505;52.512;13.460;2023-04-28T01:02:32;101386.66;;;5.36;60.25
50550;BME280;36505;52.512;13.460;2023-04-28T01:04:58;101403.84;;;5.43;61.29
50550;BME280;36505;52.512;13.460;2023-04-28T01:07:24;101404.94;;;5.48;60.80
50550;BME280;36505;52.512;13.460;2023-04-28T01:09:49;101396.56;;;5.43;60.49
50550;BME280;36505;52.512;13.460;2023-04-28T01:12:15;101396.78;;;5.48;61.09
50550;BME280;36505;52.512;13.460;2023-04-28T01:14:41;101391.56;;;5.47;61.11
50550;BME280;36505;52.512;13.460;2023-04-28T01:17:07;101398.72;;;5.54;61.09
50550;BME280;36505;52.512;13.460;2023-04-28T01:19:32;101367.28;;;5.39;60.79
50550;BME280;36505;52.512;13.460;2023-04-28T01:21:58;101385.09;;;5.48;60.41
50550;BME280;36505;52.512;13.460;2023-04-28T01:24:23;101392.22;;;5.49;60.20
50550;BME280;36505;52.512;13.460;2023-04-28T01:26:49;101383.56;;;5.39;60.59
50550;BME280;36505;52.512;13.460;2023-04-28T01:29:14;101371.03;;;5.38;60.76
50550;BME280;36505;52.512;13.460;2023-04-28T01:31:40;101365.13;;;5.34;60.88
50550;BME280;36505;52.512;13.460;2023-04-28T01:34:05;101389.97;;;5.31;61.03
50550;BME280;36505;52.512;13.460;2023-04-28T01:36:31;101387.56;;;5.22;61.40
50550;BME280;36505;52.512;13.460;2023-04-28T01:38:57;101365.53;;;5.10;61.42
50550;BME280;36505;52.512;13.460;2023-04-28T01:41:23;101362.09;;;5.01;61.91
50550;BME280;36505;52.512;13.460;2023-04-28T01:43:48;101371.38;;;4.92;61.98
50550;BME280;36505;52.512;13.460;2023-04-28T01:46:14;101375.66;;;5.01;62.54
50550;BME280;36505;52.512;13.460;2023-04-28T01:48:39;101327.31;;;4.69;62.20
50550;BME280;36505;52.512;13.460;2023-04-28T01:51:04;101351.22;;;4.80;62.42
50550;BME280;36505;52.512;13.460;2023-04-28T01:53:30;101337.56;;;4.73;62.31
50550;BME280;36505;52.512;13.460;2023-04-28T01:55:55;101365.09;;;4.92;62.25
50550;BME280;36505;52.512;13.460;2023-04-28T01:58:22;101371.72;;;5.04;62.96
50550;BME280;36505;52.512;13.460;2023-04-28T02:00:48;101368.06;;;5.11;62.55
50550;BME280;36505;52.512;13.460;2023-04-28T02:03:13;101370.31;;;5.08;61.95
50550;BME280;36505;52.512;13.460;2023-04-28T02:05:39;101350.91;;;4.90;62.18
50550;BME280;36505;52.512;13.460;2023-04-28T02:08:04;101347.53;;;4.88;62.45
50550;BME280;36505;52.512;13.460;2023-04-28T02:10:30;101369.56;;;4.99;62.31
50550;BME280;36505;52.512;13.460;2023-04-28T02:12:55;101340.09;;;4.75;62.65
50550;BME280;36505;52.512;13.460;2023-04-28T02:15:21;101373.41;;;4.84;62.91
50550;BME280;36505;52.512;13.460;2023-04-28T02:17:46;101373.94;;;4.79;62.81
50550;BME280;36505;52.512;13.460;2023-04-28T02:20:12;101374.72;;;4.73;63.33
50550;BME280;36505;52.512;13.460;2023-04-28T02:22:38;101359.78;;;4.62;63.28
50550;BME280;36505;52.512;13.460;2023-04-28T02:25:05;101373.53;;;4.61;63.72
50550;BME280;36505;52.512;13.460;2023-04-28T02:27:30;101350.47;;;4.50;64.33
50550;BME280;36505;52.512;13.460;2023-04-28T02:29:55;101351.50;;;4.49;63.88
50550;BME280;36505;52.512;13.460;2023-04-28T02:32:21;101354.91;;;4.58;63.94
50550;BME280;36505;52.512;13.460;2023-04-28T02:34:52;101342.50;;;4.49;63.90
50550;BME280;36505;52.512;13.460;2023-04-28T02:37:17;101358.84;;;4.70;63.75
50550;BME280;36505;52.512;13.460;2023-04-28T02:39:43;101359.88;;;4.69;63.66
50550;BME280;36505;52.512;13.460;2023-04-28T02:42:08;101346.66;;;4.66;63.74
50550;BME280;36505;52.512;13.460;2023-04-28T02:44:33;101326.13;;;4.57;63.77
50550;BME280;36505;52.512;13.460;2023-04-28T02:46:59;101348.25;;;4.75;63.26
50550;BME280;36505;52.512;13.460;2023-04-28T02:49:25;101348.09;;;4.62;63.47
50550;BME280;36505;52.512;13.460;2023-04-28T02:51:51;101356.34;;;4.54;63.50
50550;BME280;36505;52.512;13.460;2023-04-28T02:54:16;101352.13;;;4.51;63.57
50550;BME280;36505;52.512;13.460;2023-04-28T02:56:51;101340.81;;;4.48;63.45
50550;BME280;36505;52.512;13.460;2023-04-28T02:59:16;101356.44;;;4.46;63.54
50550;BME280;36505;52.512;13.460;2023-04-28T03:01:42;101335.31;;;4.41;63.62
50550;BME280;36505;52.512;13.460;2023-04-28T03:04:09;101319.06;;;4.26;63.27
50550;BME280;36505;52.512;13.460;2023-04-28T03:06:34;101344.97;;;4.29;63.58
50550;BME280;36505;52.512;13.460;2023-04-28T03:08:59;101319.75;;;4.14;63.77
50550;BME280;36505;52.512;13.460;2023-04-28T03:11:25;101344.69;;;4.24;63.92
50550;BME280;36505;52.512;13.460;2023-04-28T03:13:50;101325.94;;;4.08;63.95
50550;BME280;36505;52.512;13.460;2023-04-28T03:16:15;101324.41;;;4.05;63.68
50550;BME280;36505;52.512;13.460;2023-04-28T03:18:41;101330.88;;;4.04;64.34
50550;BME280;36505;52.512;13.460;2023-04-28T03:21:06;101340.59;;;4.13;64.26
50550;BME280;36505;52.512;13.460;2023-04-28T03:23:32;101312.06;;;4.03;64.15
50550;BME280;36505;52.512;13.460;2023-04-28T03:25:57;101337.13;;;4.19;64.26
50550;BME280;36505;52.512;13.460;2023-04-28T03:28:22;101329.25;;;4.24;64.03
50550;BME280;36505;52.512;13.460;2023-04-28T03:30:48;101320.31;;;4.09;64.44
50550;BME280;36505;52.512;13.460;2023-04-28T03:33:13;101307.72;;;4.02;64.78
50550;BME280;36505;52.512;13.460;2023-04-28T03:35:38;101281.38;;;3.81;64.91
50550;BME280;36505;52.512;13.460;2023-04-28T03:38:04;101292.47;;;3.86;64.94
50550;BME280;36505;52.512;13.460;2023-04-28T03:40:31;101321.88;;;4.04;64.91
50550;BME280;36505;52.512;13.460;2023-04-28T03:42:56;101329.38;;;4.02;65.05
50550;BME280;36505;52.512;13.460;2023-04-28T03:45:22;101323.22;;;4.08;64.77
50550;BME280;36505;52.512;13.460;2023-04-28T03:47:47;101326.66;;;4.16;64.81
50550;BME280;36505;52.512;13.460;2023-04-28T03:50:13;101325.84;;;4.16;64.98
50550;BME280;36505;52.512;13.460;2023-04-28T03:52:38;101310.28;;;4.10;65.13
50550;BME280;36505;52.512;13.460;2023-04-28T03:55:04;101313.31;;;4.15;65.10
50550;BME280;36505;52.512;13.460;2023-04-28T03:57:29;101312.28;;;4.16;65.35
50550;BME280;36505;52.512;13.460;2023-04-28T03:59:54;101316.09;;;4.21;65.19
50550;BME280;36505;52.512;13.460;2023-04-28T04:02:20;101307.56;;;4.24;64.67
50550;BME280;36505;52.512;13.460;2023-04-28T04:04:45;101308.41;;;4.25;64.77
50550;BME280;36505;52.512;13.460;2023-04-28T04:07:12;101309.44;;;4.24;64.94
50550;BME280;36505;52.512;13.460;2023-04-28T04:09:37;101304.22;;;4.22;64.56
50550;BME280;36505;52.512;13.460;2023-04-28T04:12:03;101300.03;;;4.20;64.54
50550;BME280;36505;52.512;13.460;2023-04-28T04:14:28;101288.50;;;4.18;64.51
50550;BME280;36505;52.512;13.460;2023-04-28T04:16:54;101294.94;;;4.31;64.49
50550;BME280;36505;52.512;13.460;2023-04-28T04:19:19;101297.28;;;4.34;64.19
50550;BME280;36505;52.512;13.460;2023-04-28T04:21:45;101302.47;;;4.51;63.36
50550;BME280;36505;52.512;13.460;2023-04-28T04:24:10;101301.31;;;4.60;63.35
50550;BME280;36505;52.512;13.460;2023-04-28T04:26:36;101313.41;;;4.78;62.76
50550;BME280;36505;52.512;13.460;2023-04-28T04:29:01;101308.34;;;4.90;62.26
50550;BME280;36505;52.512;13.460;2023-04-28T04:31:26;101306.78;;;5.02;61.70
50550;BME280;36505;52.512;13.460;2023-04-28T04:33:52;101301.09;;;5.19;61.61
50550;BME280;36505;52.512;13.460;2023-04-28T04:36:17;101301.28;;;5.45;60.73
50550;BME280;36505;52.512;13.460;2023-04-28T04:38:43;101296.31;;;5.83;59.01
50550;BME280;36505;52.512;13.460;2023-04-28T04:41:08;101286.09;;;6.19;57.87
50550;BME280;36505;52.512;13.460;2023-04-28T04:43:33;101289.81;;;6.72;56.21
50550;BME280;36505;52.512;13.460;2023-04-28T04:45:59;101292.38;;;7.00;54.92
50550;BME280;36505;52.512;13.460;2023-04-28T04:48:24;101282.34;;;7.40;54.13
50550;BME280;36505;52.512;13.460;2023-04-28T04:50:50;101276.03;;;6.81;54.83
50550;BME280;36505;52.512;13.460;2023-04-28T04:53:15;101276.16;;;6.53;55.71
50550;BME280;36505;52.512;13.460;2023-04-28T04:55:40;101280.09;;;6.44;56.04
50550;BME280;36505;52.512;13.460;2023-04-28T04:58:06;101285.16;;;6.47;56.22
50550;BME280;36505;52.512;13.460;2023-04-28T05:00:31;101271.28;;;6.35;56.18
50550;BME280;36505;52.512;13.460;2023-04-28T05:02:57;101285.88;;;6.75;55.50
50550;BME280;36505;52.512;13.460;2023-04-28T05:05:23;101277.28;;;7.31;54.01
50550;BME280;36505;52.512;13.460;2023-04-28T05:07:49;101265.06;;;7.86;52.59
50550;BME280;36505;52.512;13.460;2023-04-28T05:10:14;101261.00;;;9.83;47.90
50550;BME280;36505;52.512;13.460;2023-04-28T05:12:40;101265.44;;;9.84;46.63
50550;BME280;36505;52.512;13.460;2023-04-28T05:15:05;101264.22;;;8.81;48.60
50550;BME280;36505;52.512;13.460;2023-04-28T05:17:32;101260.91;;;8.79;49.00
50550;BME280;36505;52.512;13.460;2023-04-28T05:19:58;101263.66;;;9.54;47.38
50550;BME280;36505;52.512;13.460;2023-04-28T05:22:23;101258.44;;;10.07;46.70
50550;BME280;36505;52.512;13.460;2023-04-28T05:24:50;101263.63;;;10.15;45.46
50550;BME280;36505;52.512;13.460;2023-04-28T05:27:15;101270.38;;;10.30;45.85
50550;BME280;36505;52.512;13.460;2023-04-28T05:29:41;101263.25;;;10.59;44.40
50550;BME280;36505;52.512;13.460;2023-04-28T05:32:06;101259.59;;;11.07;43.64
50550;BME280;36505;52.512;13.460;2023-04-28T05:34:31;101253.41;;;12.16;41.02
50550;BME280;36505;52.512;13.460;2023-04-28T05:36:57;101248.13;;;13.28;38.31
50550;BME280;36505;52.512;13.460;2023-04-28T05:39:22;101236.25;;;14.00;36.80
50550;BME280;36505;52.512;13.460;2023-04-28T05:41:47;101241.81;;;14.97;34.98
50550;BME280;36505;52.512;13.460;2023-04-28T05:44:13;101236.50;;;15.22;34.13
50550;BME280;36505;52.512;13.460;2023-04-28T05:46:38;101232.72;;;15.28;34.06
50550;BME280;36505;52.512;13.460;2023-04-28T05:49:04;101233.16;;;15.52;33.78
50550;BME280;36505;52.512;13.460;2023-04-28T05:51:29;101214.53;;;16.22;32.49
50550;BME280;36505;52.512;13.460;2023-04-28T05:53:55;101222.75;;;16.06;32.39
50550;BME280;36505;52.512;13.460;2023-04-28T05:56:20;101221.56;;;15.92;32.64
50550;BME280;36505;52.512;13.460;2023-04-28T05:58:46;101223.72;;;16.47;31.95
50550;BME280;36505;52.512;13.460;2023-04-28T06:01:12;101220.63;;;16.29;32.23
50550;BME280;36505;52.512;13.460;2023-04-28T06:03:38;101219.38;;;16.62;31.82
50550;BME280;36505;52.512;13.460;2023-04-28T06:06:06;101214.19;;;16.85;31.03
50550;BME280;36505;52.512;13.460;2023-04-28T06:08:32;101218.63;;;16.91;31.38
50550;BME280;36505;52.512;13.460;2023-04-28T06:10:57;101209.19;;;16.82;31.03
50550;BME280;36505;52.512;13.460;2023-04-28T06:13:23;101211.44;;;16.08;31.91
50550;BME280;36505;52.512;13.460;2023-04-28T06:15:48;101212.66;;;16.37;31.99
50550;BME280;36505;52.512;13.460;2023-04-28T06:18:14;101216.97;;;17.11;31.09
50550;BME280;36505;52.512;13.460;2023-04-28T06:20:40;101203.63;;;17.48;30.20
50550;BME280;36505;52.512;13.460;2023-04-28T06:23:06;101207.28;;;17.18;30.62
50550;BME280;36505;52.512;13.460;2023-04-28T06:25:31;101199.53;;;17.25;30.63
50550;BME280;36505;52.512;13.460;2023-04-28T06:27:57;101198.38;;;17.42;30.94
50550;BME280;36505;52.512;13.460;2023-04-28T06:30:23;101206.66;;;17.87;29.73
50550;BME280;36505;52.512;13.460;2023-04-28T06:32:48;101189.22;;;17.71;29.70
50550;BME280;36505;52.512;13.460;2023-04-28T06:35:15;101196.03;;;18.69;29.49
50550;BME280;36505;52.512;13.460;2023-04-28T06:37:40;101185.34;;;18.42;28.97
50550;BME280;36505;52.512;13.460;2023-04-28T06:40:06;101193.28;;;18.98;28.19
50550;BME280;36505;52.512;13.460;2023-04-28T06:42:32;101192.78;;;19.29;27.85
50550;BME280;36505;52.512;13.460;2023-04-28T06:44:58;101188.38;;;18.89;28.22
50550;BME280;36505;52.512;13.460;2023-04-28T06:47:23;101186.34;;;19.63;27.09
50550;BME280;36505;52.512;13.460;2023-04-28T06:49:48;101173.00;;;19.36;27.13
50550;BME280;36505;52.512;13.460;2023-04-28T06:52:15;101176.50;;;19.47;27.59
50550;BME280;36505;52.512;13.460;2023-04-28T06:54:40;101188.88;;;19.59;26.99
50550;BME280;36505;52.512;13.460;2023-04-28T06:57:05;101173.50;;;18.26;28.30
50550;BME280;36505;52.512;13.460;2023-04-28T06:59:31;101163.81;;;18.73;28.46
50550;BME280;36505;52.512;13.460;2023-04-28T07:01:56;101166.84;;;18.22;28.55
50550;BME280;36505;52.512;13.460;2023-04-28T07:04:22;101164.34;;;17.41;29.04
50550;BME280;36505;52.512;13.460;2023-04-28T07:06:47;101157.19;;;17.15;29.93
50550;BME280;36505;52.512;13.460;2023-04-28T07:09:13;101169.03;;;17.51;30.05
50550;BME280;36505;52.512;13.460;2023-04-28T07:11:40;101149.72;;;17.15;29.88
50550;BME280;36505;52.512;13.460;2023-04-28T07:14:05;101145.16;;;17.75;29.00
50550;BME280;36505;52.512;13.460;2023-04-28T07:16:32;101163.09;;;18.91;27.27
50550;BME280;36505;52.512;13.460;2023-04-28T07:18:58;101148.44;;;18.46;26.57
50550;BME280;36505;52.512;13.460;2023-04-28T07:21:23;101150.31;;;18.02;27.27
50550;BME280;36505;52.512;13.460;2023-04-28T07:23:48;101145.81;;;18.16;27.16
50550;BME280;36505;52.512;13.460;2023-04-28T07:26:14;101145.03;;;18.60;26.58
50550;BME280;36505;52.512;13.460;2023-04-28T07:28:41;101140.78;;;19.06;26.05
50550;BME280;36505;52.512;13.460;2023-04-28T07:31:07;101132.69;;;19.67;25.75
50550;BME280;36505;52.512;13.460;2023-04-28T07:33:32;101146.63;;;20.29;26.22
50550;BME280;36505;52.512;13.460;2023-04-28T07:35:57;101138.47;;;19.71;25.75
50550;BME280;36505;52.512;13.460;2023-04-28T07:38:23;101152.22;;;19.28;25.95
50550;BME280;36505;52.512;13.460;2023-04-28T07:40:48;101131.84;;;19.67;26.33
50550;BME280;36505;52.512;13.460;2023-04-28T07:43:14;101111.16;;;20.58;24.87
50550;BME280;36505;52.512;13.460;2023-04-28T07:45:39;101109.81;;;20.37;24.79
50550;BME280;36505;52.512;13.460;2023-04-28T07:48:05;101105.53;;;21.28;24.63
50550;BME280;36505;52.512;13.460;2023-04-28T07:50:30;101110.41;;;21.77;23.10
50550;BME280;36505;52.512;13.460;2023-04-28T07:52:57;101097.63;;;22.03;22.70
50550;BME280;36505;52.512;13.460;2023-04-28T07:55:23;101097.19;;;22.10;23.33
50550;BME280;36505;52.512;13.460;2023-04-28T07:57:48;101110.06;;;23.22;21.96
50550;BME280;36505;52.512;13.460;2023-04-28T08:00:14;101109.69;;;23.77;21.62
50550;BME280;36505;52.512;13.460;2023-04-28T08:02:39;101093.31;;;24.10;21.34
50550;BME280;36505;52.512;13.460;2023-04-28T08:05:05;101098.22;;;23.96;21.30
50550;BME280;36505;52.512;13.460;2023-04-28T08:07:32;101098.75;;;24.15;21.11
50550;BME280;36505;52.512;13.460;2023-04-28T08:09:58;101093.94;;;23.98;21.43
50550;BME280;36505;52.512;13.460;2023-04-28T08:12:23;101086.47;;;24.33;21.15
50550;BME280;36505;52.512;13.460;2023-04-28T08:14:49;101091.91;;;24.56;20.38
50550;BME280;36505;52.512;13.460;2023-04-28T08:17:14;101091.56;;;24.66;20.76
50550;BME280;36505;52.512;13.460;2023-04-28T08:19:39;101081.84;;;24.20;20.60
50550;BME280;36505;52.512;13.460;2023-04-28T08:22:05;101091.06;;;24.38;20.73
50550;BME280;36505;52.512;13.460;2023-04-28T08:24:32;101101.44;;;24.46;20.46
50550;BME280;36505;52.512;13.460;2023-04-28T08:27:01;101083.25;;;24.09;20.73
50550;BME280;36505;52.512;13.460;2023-04-28T08:29:30;101084.03;;;23.44;21.06
50550;BME280;36505;52.512;13.460;2023-04-28T08:31:56;101091.53;;;24.23;20.69
50550;BME280;36505;52.512;13.460;2023-04-28T08:34:22;101080.28;;;25.17;19.68
50550;BME280;36505;52.512;13.460;2023-04-28T08:36:47;101079.91;;;25.36;19.65
50550;BME280;36505;52.512;13.460;2023-04-28T08:39:12;101078.59;;;25.25;19.34
50550;BME280;36505;52.512;13.460;2023-04-28T08:41:38;101076.22;;;24.89;19.91
50550;BME280;36505;52.512;13.460;2023-04-28T08:44:08;101073.47;;;24.29;20.97
50550;BME280;36505;52.512;13.460;2023-04-28T08:46:33;101066.34;;;24.66;20.34
50550;BME280;36505;52.512;13.460;2023-04-28T08:49:00;101052.50;;;24.00;19.99
50550;BME280;36505;52.512;13.460;2023-04-28T08:51:34;101075.72;;;22.91;21.16
50550;BME280;36505;52.512;13.460;2023-04-28T08:54:02;101064.25;;;23.01;21.44
50550;BME280;36505;52.512;13.460;2023-04-28T08:56:32;101060.41;;;23.50;22.02
50550;BME280;36505;52.512;13.460;2023-04-28T08:59:03;101063.75;;;23.70;21.04
50550;BME280;36505;52.512;13.460;2023-04-28T09:01:30;101045.25;;;23.99;20.70
50550;BME280;36505;52.512;13.460;2023-04-28T09:03:55;101053.38;;;23.61;20.78
50550;BME280;36505;52.512;13.460;2023-04-28T09:06:21;101051.34;;;23.45;21.63
50550;BME280;36505;52.512;13.460;2023-04-28T09:08:47;101041.53;;;23.56;21.72
50550;BME280;36505;52.512;13.460;2023-04-28T09:11:15;101050.31;;;23.41;21.25
50550;BME280;36505;52.512;13.460;2023-04-28T09:13:41;101040.66;;;22.18;22.57
50550;BME280;36505;52.512;13.460;2023-04-28T09:16:06;101028.41;;;22.05;23.09
50550;BME280;36505;52.512;13.460;2023-04-28T09:18:32;101031.13;;;22.19;22.52
50550;BME280;36505;52.512;13.460;2023-04-28T09:21:08;101034.72;;;21.97;22.61
50550;BME280;36505;52.512;13.460;2023-04-28T09:23:45;101026.91;;;21.45;23.66
50550;BME280;36505;52.512;13.460;2023-04-28T09:26:11;101037.47;;;21.34;23.21
50550;BME280;36505;52.512;13.460;2023-04-28T09:28:37;101031.34;;;20.40;24.15
50550;BME280;36505;52.512;13.460;2023-04-28T09:31:02;101020.72;;;19.86;24.98
50550;BME280;36505;52.512;13.460;2023-04-28T09:33:28;101008.13;;;19.93;25.61
50550;BME280;36505;52.512;13.460;2023-04-28T09:35:54;101016.69;;;19.78;25.84
50550;BME280;36505;52.512;13.460;2023-04-28T09:38:20;101014.00;;;19.25;26.57
50550;BME280;36505;52.512;13.460;2023-04-28T09:43:32;101006.78;;;19.01;27.53
50550;BME280;36505;52.512;13.460;2023-04-28T09:46:02;101005.28;;;18.84;27.64
50550;BME280;36505;52.512;13.460;2023-04-28T09:48:33;101009.72;;;18.51;28.03
50550;BME280;36505;52.512;13.460;2023-04-28T09:51:02;100989.84;;;18.10;28.57
50550;BME280;36505;52.512;13.460;2023-04-28T09:53:29;100989.59;;;18.02;28.93
50550;BME280;36505;52.512;13.460;2023-04-28T09:55:57;100996.47;;;18.09;28.94
50550;BME280;36505;52.512;13.460;2023-04-28T09:58:24;100993.91;;;17.84;29.16
50550;BME280;36505;52.512;13.460;2023-04-28T10:00:57;100995.97;;;18.02;29.28
50550;BME280;36505;52.512;13.460;2023-04-28T10:03:28;100990.03;;;18.19;29.04
50550;BME280;36505;52.512;13.460;2023-04-28T10:05:53;100992.78;;;17.85;29.44
50550;BME280;36505;52.512;13.460;2023-04-28T10:08:20;100991.25;;;18.03;29.99
50550;BME280;36505;52.512;13.460;2023-04-28T10:10:47;100997.59;;;18.08;29.46
50550;BME280;36505;52.512;13.460;2023-04-28T10:13:18;100988.13;;;17.75;29.54
50550;BME280;36505;52.512;13.460;2023-04-28T10:15:45;100981.56;;;18.05;29.95
50550;BME280;36505;52.512;13.460;2023-04-28T10:18:14;100972.03;;;18.16;29.32
50550;BME280;36505;52.512;13.460;2023-04-28T10:20:45;100975.06;;;18.20;29.21
50550;BME280;36505;52.512;13.460;2023-04-28T10:26:08;100966.88;;;18.05;29.85
50550;BME280;36505;52.512;13.460;2023-04-28T10:28:34;100969.69;;;18.00;29.69
50550;BME280;36505;52.512;13.460;2023-04-28T10:31:17;100974.91;;;17.57;30.53
50550;BME280;36505;52.512;13.460;2023-04-28T10:33:43;100965.69;;;17.18;30.90
50550;BME280;36505;52.512;13.460;2023-04-28T10:36:09;100965.75;;;17.03;31.53
50550;BME280;36505;52.512;13.460;2023-04-28T10:39:07;100951.63;;;17.09;31.40
50550;BME280;36505;52.512;13.460;2023-04-28T10:41:31;100953.31;;;17.05;31.42
50550;BME280;36505;52.512;13.460;2023-04-28T10:43:57;100946.41;;;16.92;31.29
50550;BME280;36505;52.512;13.460;2023-04-28T10:46:22;100946.47;;;16.77;31.85
50550;BME280;36505;52.512;13.460;2023-04-28T10:56:07;100940.63;;;16.84;31.82
50550;BME280;36505;52.512;13.460;2023-04-28T10:58:33;100928.25;;;16.71;32.08
50550;BME280;36505;52.512;13.460;2023-04-28T11:04:05;100918.00;;;16.67;32.17
50550;BME280;36505;52.512;13.460;2023-04-28T11:06:45;100922.75;;;16.31;33.02
50550;BME280;36505;52.512;13.460;2023-04-28T11:11:36;100916.66;;;16.64;32.37
50550;BME280;36505;52.512;13.460;2023-04-28T11:16:47;100909.63;;;16.87;32.68
50550;BME280;36505;52.512;13.460;2023-04-28T11:22:20;100908.56;;;16.83;32.27
50550;BME280;36505;52.512;13.460;2023-04-28T11:24:59;100906.13;;;16.61;32.96
50550;BME280;36505;52.512;13.460;2023-04-28T11:27:26;100913.00;;;16.74;32.41
50550;BME280;36505;52.512;13.460;2023-04-28T11:29:52;100913.06;;;16.64;32.51
50550;BME280;36505;52.512;13.460;2023-04-28T11:32:28;100908.56;;;16.83;32.61
50550;BME280;36505;52.512;13.460;2023-04-28T11:34:54;100905.81;;;16.73;32.87
50550;BME280;36505;52.512;13.460;2023-04-28T11:37:20;100895.59;;;16.78;32.84
50550;BME280;36505;52.512;13.460;2023-04-28T11:39:47;100901.34;;;16.87;32.43
50550;BME280;36505;52.512;13.460;2023-04-28T11:42:12;100912.75;;;16.65;32.64
50550;BME280;36505;52.512;13.460;2023-04-28T11:44:38;100904.19;;;16.51;32.67
50550;BME280;36505;52.512;13.460;2023-04-28T11:47:04;100899.50;;;16.62;32.91
50550;BME280;36505;52.512;13.460;2023-04-28T11:49:40;100893.97;;;16.62;33.01
50550;BME280;36505;52.512;13.460;2023-04-28T11:52:07;100897.28;;;16.54;33.18
50550;BME280;36505;52.512;13.460;2023-04-28T11:54:33;100890.91;;;16.53;32.88
50550;BME280;36505;52.512;13.460;2023-04-28T11:56:59;100896.72;;;16.47;33.16
50550;BME280;36505;52.512;13.460;2023-04-28T11:59:32;100891.50;;;16.40;33.51
50550;BME280;36505;52.512;13.460;2023-04-28T12:02:02;100889.88;;;16.19;33.61
50550;BME280;36505;52.512;13.460;2023-04-28T12:04:39;100881.03;;;15.92;34.17
50550;BME280;36505;52.512;13.460;2023-04-28T12:07:07;100891.56;;;15.95;34.72
50550;BME280;36505;52.512;13.460;2023-04-28T12:09:35;100884.91;;;15.86;34.76
50550;BME280;36505;52.512;13.460;2023-04-28T12:12:09;100890.72;;;15.99;34.76
50550;BME280;36505;52.512;13.460;2023-04-28T12:14:53;100876.34;;;16.07;34.24
50550;BME280;36505;52.512;13.460;2023-04-28T12:19:48;100878.25;;;16.32;34.63
50550;BME280;36505;52.512;13.460;2023-04-28T12:22:14;100869.66;;;16.39;34.40
50550;BME280;36505;52.512;13.460;2023-04-28T12:24:41;100853.88;;;16.54;33.89
50550;BME280;36505;52.512;13.460;2023-04-28T12:27:18;100862.19;;;16.65;33.83
50550;BME280;36505;52.512;13.460;2023-04-28T12:29:46;100859.13;;;16.71;33.69
50550;BME280;36505;52.512;13.460;2023-04-28T12:32:12;100861.31;;;16.69;33.86
50550;BME280;36505;52.512;13.460;2023-04-28T12:34:39;100854.16;;;16.58;34.00
50550;BME280;36505;52.512;13.460;2023-04-28T12:37:05;100855.00;;;16.64;34.12
50550;BME280;36505;52.512;13.460;2023-04-28T12:39:34;100852.97;;;16.84;34.22
50550;BME280;36505;52.512;13.460;2023-04-28T12:42:00;100857.00;;;17.07;34.29
50550;BME280;36505;52.512;13.460;2023-04-28T12:44:36;100839.25;;;17.18;33.40
50550;BME280;36505;52.512;13.460;2023-04-28T12:47:07;100852.81;;;17.15;33.25
50550;BME280;36505;52.512;13.460;2023-04-28T12:49:36;100846.78;;;17.03;33.63
50550;BME280;36505;52.512;13.460;2023-04-28T12:52:03;100842.94;;;16.93;33.94
50550;BME280;36505;52.512;13.460;2023-04-28T12:54:29;100847.16;;;16.81;33.99
50550;BME280;36505;52.512;13.460;2023-04-28T12:56:55;100840.25;;;16.83;34.21
50550;BME280;36505;52.512;13.460;2023-04-28T12:59:21;100838.56;;;16.87;34.07
50550;BME280;36505;52.512;13.460;2023-04-28T13:01:47;100835.28;;;16.80;33.71
50550;BME280;36505;52.512;13.460;2023-04-28T13:04:12;100830.31;;;16.72;33.87
50550;BME280;36505;52.512;13.460;2023-04-28T13:06:38;100823.75;;;16.58;34.39
50550;BME280;36505;52.512;13.460;2023-04-28T13:09:10;100822.97;;;16.42;34.80